This is the latest recevied weather packets stored in our database for station/object N6OL. If no packets are shown the sender has not sent any weather packets the latest 10 day(s).
| Time | Temp. | Humidity | Pressure | Rain* | Wind** | Luminosity | Snow |
|---|---|---|---|---|---|---|---|
| 1778208003 | 13.89° C | 82% | 1016.7 hPa | 0 mm | - | 16 W/m² | - |
| 1778206503 | 14.44° C | 80% | 1016.6 hPa | 0 mm | - | 84 W/m² | - |
| 1778204403 | 15° C | 78% | 1016.5 hPa | 0 mm | - | 200 W/m² | - |
| 1778204124 | 15.56° C | 77% | 1016.4 hPa | 0 mm | - | 216 W/m² | - |
| 1778203803 | 15.56° C | 78% | 1016.5 hPa | 0 mm | - | 236 W/m² | - |
| 1778201103 | 15.56° C | 76% | 1016.8 hPa | 0 mm | - | 374 W/m² | - |
| 1778200503 | 16.11° C | 76% | 1016.8 hPa | 0 mm | - | 404 W/m² | - |
| 1778199603 | 16.11° C | 74% | 1016.8 hPa | 0 mm | - | 446 W/m² | - |
| 1778198103 | 16.67° C | 73% | 1016.6 hPa | 0 mm | - | 519 W/m² | - |
| 1778197803 | 16.67° C | 72% | 1016.7 hPa | 0 mm | - | 533 W/m² | - |
| 1778196903 | 16.67° C | 72% | 1016.8 hPa | 0 mm | - | 571 W/m² | - |
| 1778193603 | 16.67° C | 75% | 1016.7 hPa | 0 mm | - | 694 W/m² | - |
| 1778192703 | 16.67° C | 76% | 1016.9 hPa | 0 mm | - | 722 W/m² | - |
| 1778190003 | 17.22° C | 75% | 1017.5 hPa | 0 mm | - | 789 W/m² | - |
| 1778188524 | 16.67° C | 76% | 1017.7 hPa | 0 mm | - | 810 W/m² | - |
| 1778187603 | 16.67° C | 77% | 1017.9 hPa | 0 mm | - | 823 W/m² | - |
| 1778185503 | 16.67° C | 76% | 1018.3 hPa | 0 mm | - | 838 W/m² | - |
| 1778183403 | 16.11° C | 77% | 1018.6 hPa | 0 mm | - | 837 W/m² | - |
| 1778182503 | 16.11° C | 79% | 1018.7 hPa | 0 mm | - | 826 W/m² | - |
| 1778181603 | 15.56° C | 79% | 1018.8 hPa | 0 mm | - | 819 W/m² | - |
| 1778180403 | 16.11° C | 78% | 1019 hPa | 0 mm | - | 800 W/m² | - |
| 1778179803 | 15.56° C | 78% | 1019 hPa | 0 mm | - | 791 W/m² | - |
| 1778175003 | 14.44° C | 79% | 1019.4 hPa | 0 mm | - | 420 W/m² | - |
| 1778173503 | 13.89° C | 81% | 1019.3 hPa | 0 mm | - | 334 W/m² | - |
| 1778172003 | 13.33° C | 83% | 1019.2 hPa | 0 mm | - | 227 W/m² | - |
* Rain latest hour (hover to see other rain measurements)
** Current wind speed in m/s (hover to see current wind gust speed)